sensor_id;sensor_type;location;lat;lon;timestamp;temperature;humidity
4548;DHT22;2286;51.570;7.090;2023-02-23T00:01:11;9.40;99.90
4548;DHT22;2286;51.570;7.090;2023-02-23T00:03:39;9.40;99.90
4548;DHT22;2286;51.570;7.090;2023-02-23T00:06:06;9.40;99.90
4548;DHT22;2286;51.570;7.090;2023-02-23T00:08:33;9.40;1.00
4548;DHT22;2286;51.570;7.090;2023-02-23T00:11:02;9.40;1.00
4548;DHT22;2286;51.570;7.090;2023-02-23T00:13:30;9.40;1.00
4548;DHT22;2286;51.570;7.090;2023-02-23T00:15:57;9.40;1.00
4548;DHT22;2286;51.570;7.090;2023-02-23T00:18:25;9.40;1.00
4548;DHT22;2286;51.570;7.090;2023-02-23T00:20:55;9.30;1.00
4548;DHT22;2286;51.570;7.090;2023-02-23T00:23:23;9.40;1.00
4548;DHT22;2286;51.570;7.090;2023-02-23T00:25:52;9.30;1.00
4548;DHT22;2286;51.570;7.090;2023-02-23T00:28:19;9.30;1.00
4548;DHT22;2286;51.570;7.090;2023-02-23T00:30:46;9.40;22.60
4548;DHT22;2286;51.570;7.090;2023-02-23T00:33:13;9.30;60.80
4548;DHT22;2286;51.570;7.090;2023-02-23T00:35:41;9.30;99.90
4548;DHT22;2286;51.570;7.090;2023-02-23T00:38:08;9.30;99.90
4548;DHT22;2286;51.570;7.090;2023-02-23T00:40:38;9.30;99.90
4548;DHT22;2286;51.570;7.090;2023-02-23T00:43:07;9.30;1.00
4548;DHT22;2286;51.570;7.090;2023-02-23T00:45:34;9.30;1.00
4548;DHT22;2286;51.570;7.090;2023-02-23T00:48:02;9.30;1.00
4548;DHT22;2286;51.570;7.090;2023-02-23T00:50:35;9.40;1.00
4548;DHT22;2286;51.570;7.090;2023-02-23T00:53:04;9.40;1.00
4548;DHT22;2286;51.570;7.090;2023-02-23T00:55:31;9.40;1.00
4548;DHT22;2286;51.570;7.090;2023-02-23T00:57:58;9.30;1.00
4548;DHT22;2286;51.570;7.090;2023-02-23T01:00:25;9.30;1.00
4548;DHT22;2286;51.570;7.090;2023-02-23T01:02:52;9.30;1.00
4548;DHT22;2286;51.570;7.090;2023-02-23T01:05:19;9.30;1.00
4548;DHT22;2286;51.570;7.090;2023-02-23T01:07:46;9.30;1.00
4548;DHT22;2286;51.570;7.090;2023-02-23T01:10:15;9.30;1.00
4548;DHT22;2286;51.570;7.090;2023-02-23T01:12:49;9.20;1.00
4548;DHT22;2286;51.570;7.090;2023-02-23T01:15:17;9.30;54.00
4548;DHT22;2286;51.570;7.090;2023-02-23T01:17:45;9.20;31.40
4548;DHT22;2286;51.570;7.090;2023-02-23T01:20:14;9.20;99.90
4548;DHT22;2286;51.570;7.090;2023-02-23T01:22:44;9.20;99.90
4548;DHT22;2286;51.570;7.090;2023-02-23T01:25:11;9.20;1.00
4548;DHT22;2286;51.570;7.090;2023-02-23T01:27:40;9.20;1.00
4548;DHT22;2286;51.570;7.090;2023-02-23T01:30:10;9.20;1.00
4548;DHT22;2286;51.570;7.090;2023-02-23T01:32:37;9.20;1.00
4548;DHT22;2286;51.570;7.090;2023-02-23T01:35:06;9.20;1.00
4548;DHT22;2286;51.570;7.090;2023-02-23T01:37:34;9.10;99.90
4548;DHT22;2286;51.570;7.090;2023-02-23T01:40:02;9.10;99.90
4548;DHT22;2286;51.570;7.090;2023-02-23T01:42:36;9.10;99.90
4548;DHT22;2286;51.570;7.090;2023-02-23T01:45:25;9.10;99.90
4548;DHT22;2286;51.570;7.090;2023-02-23T01:47:56;9.10;99.90
4548;DHT22;2286;51.570;7.090;2023-02-23T01:50:28;9.10;99.90
4548;DHT22;2286;51.570;7.090;2023-02-23T01:52:56;9.10;99.90
4548;DHT22;2286;51.570;7.090;2023-02-23T01:55:25;9.10;1.00
4548;DHT22;2286;51.570;7.090;2023-02-23T01:57:57;9.10;1.00
4548;DHT22;2286;51.570;7.090;2023-02-23T02:00:28;9.10;1.00
4548;DHT22;2286;51.570;7.090;2023-02-23T02:02:58;9.10;1.00
4548;DHT22;2286;51.570;7.090;2023-02-23T02:05:28;9.10;99.90
4548;DHT22;2286;51.570;7.090;2023-02-23T02:07:56;9.10;99.90
4548;DHT22;2286;51.570;7.090;2023-02-23T02:10:26;9.10;1.00
4548;DHT22;2286;51.570;7.090;2023-02-23T02:13:19;9.20;1.00
4548;DHT22;2286;51.570;7.090;2023-02-23T02:16:09;9.10;1.00
4548;DHT22;2286;51.570;7.090;2023-02-23T02:18:46;9.10;99.90
4548;DHT22;2286;51.570;7.090;2023-02-23T02:21:45;9.10;99.90
4548;DHT22;2286;51.570;7.090;2023-02-23T02:27:17;9.00;99.90
4548;DHT22;2286;51.570;7.090;2023-02-23T02:30:21;9.10;99.90
4548;DHT22;2286;51.570;7.090;2023-02-23T02:38:56;9.00;1.00
4548;DHT22;2286;51.570;7.090;2023-02-23T02:41:33;9.00;1.00
4548;DHT22;2286;51.570;7.090;2023-02-23T02:44:11;9.00;1.00
4548;DHT22;2286;51.570;7.090;2023-02-23T02:46:43;8.90;99.90
4548;DHT22;2286;51.570;7.090;2023-02-23T02:49:14;9.00;14.10
4548;DHT22;2286;51.570;7.090;2023-02-23T02:51:51;8.90;1.00
4548;DHT22;2286;51.570;7.090;2023-02-23T02:54:25;8.90;99.90
4548;DHT22;2286;51.570;7.090;2023-02-23T02:56:54;8.90;1.00
4548;DHT22;2286;51.570;7.090;2023-02-23T02:59:25;9.00;1.00
4548;DHT22;2286;51.570;7.090;2023-02-23T03:02:14;9.00;1.00
4548;DHT22;2286;51.570;7.090;2023-02-23T03:04:59;9.00;99.90
4548;DHT22;2286;51.570;7.090;2023-02-23T03:07:50;8.90;99.90
4548;DHT22;2286;51.570;7.090;2023-02-23T03:10:43;9.00;99.90
4548;DHT22;2286;51.570;7.090;2023-02-23T03:13:38;9.00;1.00
4548;DHT22;2286;51.570;7.090;2023-02-23T03:16:36;8.90;1.00
4548;DHT22;2286;51.570;7.090;2023-02-23T03:19:25;8.90;99.90
4548;DHT22;2286;51.570;7.090;2023-02-23T03:22:17;8.90;99.90
4548;DHT22;2286;51.570;7.090;2023-02-23T03:25:06;8.90;99.90
4548;DHT22;2286;51.570;7.090;2023-02-23T03:27:58;8.90;99.90
4548;DHT22;2286;51.570;7.090;2023-02-23T03:30:49;8.90;99.90
4548;DHT22;2286;51.570;7.090;2023-02-23T03:33:40;8.90;16.40
4548;DHT22;2286;51.570;7.090;2023-02-23T03:36:28;8.90;12.50
4548;DHT22;2286;51.570;7.090;2023-02-23T03:39:22;8.90;1.00
4548;DHT22;2286;51.570;7.090;2023-02-23T03:42:12;8.80;1.00
4548;DHT22;2286;51.570;7.090;2023-02-23T03:45:03;8.80;1.00
4548;DHT22;2286;51.570;7.090;2023-02-23T03:47:49;8.80;1.00
4548;DHT22;2286;51.570;7.090;2023-02-23T03:50:39;8.80;16.70
4548;DHT22;2286;51.570;7.090;2023-02-23T03:53:28;8.80;55.30
4548;DHT22;2286;51.570;7.090;2023-02-23T03:56:17;8.80;51.50
4548;DHT22;2286;51.570;7.090;2023-02-23T03:59:04;8.80;99.90
4548;DHT22;2286;51.570;7.090;2023-02-23T04:01:53;8.80;99.90
4548;DHT22;2286;51.570;7.090;2023-02-23T04:04:39;8.80;99.90
4548;DHT22;2286;51.570;7.090;2023-02-23T04:07:25;8.80;99.90
4548;DHT22;2286;51.570;7.090;2023-02-23T04:10:10;8.80;99.90
4548;DHT22;2286;51.570;7.090;2023-02-23T04:12:59;8.80;99.90
4548;DHT22;2286;51.570;7.090;2023-02-23T04:15:46;8.80;1.00
4548;DHT22;2286;51.570;7.090;2023-02-23T04:18:14;8.80;1.00
4548;DHT22;2286;51.570;7.090;2023-02-23T04:20:42;8.80;1.00
4548;DHT22;2286;51.570;7.090;2023-02-23T04:23:09;8.90;18.70
4548;DHT22;2286;51.570;7.090;2023-02-23T04:25:36;8.80;62.80
4548;DHT22;2286;51.570;7.090;2023-02-23T04:28:02;8.80;99.90
4548;DHT22;2286;51.570;7.090;2023-02-23T04:30:29;8.80;99.90
4548;DHT22;2286;51.570;7.090;2023-02-23T04:32:56;8.80;99.90
4548;DHT22;2286;51.570;7.090;2023-02-23T04:35:26;8.80;99.90
4548;DHT22;2286;51.570;7.090;2023-02-23T04:37:56;8.80;99.90
4548;DHT22;2286;51.570;7.090;2023-02-23T04:40:23;8.80;99.90
4548;DHT22;2286;51.570;7.090;2023-02-23T04:42:50;8.70;99.90
4548;DHT22;2286;51.570;7.090;2023-02-23T04:45:17;8.70;99.90
4548;DHT22;2286;51.570;7.090;2023-02-23T04:47:43;8.70;99.90
4548;DHT22;2286;51.570;7.090;2023-02-23T04:50:11;8.70;99.90
4548;DHT22;2286;51.570;7.090;2023-02-23T04:52:40;8.70;99.90
4548;DHT22;2286;51.570;7.090;2023-02-23T04:55:08;8.70;1.00
4548;DHT22;2286;51.570;7.090;2023-02-23T04:57:38;8.70;1.00
4548;DHT22;2286;51.570;7.090;2023-02-23T05:00:06;8.70;1.00
4548;DHT22;2286;51.570;7.090;2023-02-23T05:02:33;8.70;1.00
4548;DHT22;2286;51.570;7.090;2023-02-23T05:05:00;8.70;27.30
4548;DHT22;2286;51.570;7.090;2023-02-23T05:07:27;8.60;99.90
4548;DHT22;2286;51.570;7.090;2023-02-23T05:09:55;8.60;99.90
4548;DHT22;2286;51.570;7.090;2023-02-23T05:12:22;8.60;99.90
4548;DHT22;2286;51.570;7.090;2023-02-23T05:14:49;8.60;51.20
4548;DHT22;2286;51.570;7.090;2023-02-23T05:17:15;8.60;1.00
4548;DHT22;2286;51.570;7.090;2023-02-23T05:19:42;8.60;1.00
4548;DHT22;2286;51.570;7.090;2023-02-23T05:22:09;8.60;45.10
4548;DHT22;2286;51.570;7.090;2023-02-23T05:24:37;8.60;1.00
4548;DHT22;2286;51.570;7.090;2023-02-23T05:27:06;8.60;60.60
4548;DHT22;2286;51.570;7.090;2023-02-23T05:29:33;8.60;1.00
4548;DHT22;2286;51.570;7.090;2023-02-23T05:31:59;8.60;1.00
4548;DHT22;2286;51.570;7.090;2023-02-23T05:34:27;8.60;1.00
4548;DHT22;2286;51.570;7.090;2023-02-23T05:36:54;8.50;1.00
4548;DHT22;2286;51.570;7.090;2023-02-23T05:39:21;8.50;1.00
4548;DHT22;2286;51.570;7.090;2023-02-23T05:41:48;8.50;1.00
4548;DHT22;2286;51.570;7.090;2023-02-23T05:44:16;8.50;1.00
4548;DHT22;2286;51.570;7.090;2023-02-23T05:46:44;8.50;1.00
4548;DHT22;2286;51.570;7.090;2023-02-23T05:49:11;8.50;1.00
4548;DHT22;2286;51.570;7.090;2023-02-23T05:51:38;8.50;99.90
4548;DHT22;2286;51.570;7.090;2023-02-23T05:54:05;8.50;1.00
4548;DHT22;2286;51.570;7.090;2023-02-23T05:56:32;8.50;1.00
4548;DHT22;2286;51.570;7.090;2023-02-23T05:58:59;8.50;1.00
4548;DHT22;2286;51.570;7.090;2023-02-23T06:01:28;8.50;99.90
4548;DHT22;2286;51.570;7.090;2023-02-23T06:03:55;8.50;99.90
4548;DHT22;2286;51.570;7.090;2023-02-23T06:06:22;8.50;99.90
4548;DHT22;2286;51.570;7.090;2023-02-23T06:08:50;8.50;1.00
4548;DHT22;2286;51.570;7.090;2023-02-23T06:11:17;8.50;1.00
4548;DHT22;2286;51.570;7.090;2023-02-23T06:13:44;8.50;7.70
4548;DHT22;2286;51.570;7.090;2023-02-23T06:16:10;8.50;99.90
4548;DHT22;2286;51.570;7.090;2023-02-23T06:18:38;8.50;99.90
4548;DHT22;2286;51.570;7.090;2023-02-23T06:21:05;8.40;26.50
4548;DHT22;2286;51.570;7.090;2023-02-23T06:23:32;8.40;59.80
4548;DHT22;2286;51.570;7.090;2023-02-23T06:25:59;8.50;99.90
4548;DHT22;2286;51.570;7.090;2023-02-23T06:28:26;8.40;99.90
4548;DHT22;2286;51.570;7.090;2023-02-23T06:30:54;8.40;1.00
4548;DHT22;2286;51.570;7.090;2023-02-23T06:33:21;8.40;1.00
4548;DHT22;2286;51.570;7.090;2023-02-23T06:35:50;8.40;1.00
4548;DHT22;2286;51.570;7.090;2023-02-23T06:38:17;8.40;1.00
4548;DHT22;2286;51.570;7.090;2023-02-23T06:40:43;8.50;99.90
4548;DHT22;2286;51.570;7.090;2023-02-23T06:43:10;8.50;99.90
4548;DHT22;2286;51.570;7.090;2023-02-23T06:45:37;8.50;99.90
4548;DHT22;2286;51.570;7.090;2023-02-23T06:48:05;8.50;99.90
4548;DHT22;2286;51.570;7.090;2023-02-23T06:50:32;8.50;99.90
4548;DHT22;2286;51.570;7.090;2023-02-23T06:53:00;8.50;1.00
4548;DHT22;2286;51.570;7.090;2023-02-23T06:55:27;8.50;1.00
4548;DHT22;2286;51.570;7.090;2023-02-23T06:57:54;8.60;1.00
4548;DHT22;2286;51.570;7.090;2023-02-23T07:00:21;8.60;1.00
4548;DHT22;2286;51.570;7.090;2023-02-23T07:02:48;8.60;99.90
4548;DHT22;2286;51.570;7.090;2023-02-23T07:05:15;8.60;1.00
4548;DHT22;2286;51.570;7.090;2023-02-23T07:07:42;8.60;99.90
4548;DHT22;2286;51.570;7.090;2023-02-23T07:10:11;8.60;1.00
4548;DHT22;2286;51.570;7.090;2023-02-23T07:12:38;8.60;1.00
4548;DHT22;2286;51.570;7.090;2023-02-23T07:15:06;8.60;99.90
4548;DHT22;2286;51.570;7.090;2023-02-23T07:17:33;8.60;52.10
4548;DHT22;2286;51.570;7.090;2023-02-23T07:20:00;8.60;1.00
4548;DHT22;2286;51.570;7.090;2023-02-23T07:22:27;8.60;99.90
4548;DHT22;2286;51.570;7.090;2023-02-23T07:24:55;8.60;99.90
4548;DHT22;2286;51.570;7.090;2023-02-23T07:27:23;8.60;1.00
4548;DHT22;2286;51.570;7.090;2023-02-23T07:29:50;8.60;1.00
4548;DHT22;2286;51.570;7.090;2023-02-23T07:32:16;8.50;99.90
4548;DHT22;2286;51.570;7.090;2023-02-23T07:34:43;8.50;99.90
4548;DHT22;2286;51.570;7.090;2023-02-23T07:37:12;8.50;99.90
4548;DHT22;2286;51.570;7.090;2023-02-23T07:39:39;8.50;99.90
4548;DHT22;2286;51.570;7.090;2023-02-23T07:42:05;8.60;47.80
4548;DHT22;2286;51.570;7.090;2023-02-23T07:44:33;8.60;57.70
4548;DHT22;2286;51.570;7.090;2023-02-23T07:47:00;8.50;1.00
4548;DHT22;2286;51.570;7.090;2023-02-23T07:49:27;8.50;1.00
4548;DHT22;2286;51.570;7.090;2023-02-23T07:51:54;8.50;1.00
4548;DHT22;2286;51.570;7.090;2023-02-23T07:54:21;8.50;1.00
4548;DHT22;2286;51.570;7.090;2023-02-23T07:56:50;8.50;1.00
4548;DHT22;2286;51.570;7.090;2023-02-23T07:59:16;8.50;1.00
4548;DHT22;2286;51.570;7.090;2023-02-23T08:01:45;8.50;1.00
4548;DHT22;2286;51.570;7.090;2023-02-23T08:04:11;8.50;1.00
4548;DHT22;2286;51.570;7.090;2023-02-23T08:06:38;8.40;1.00
4548;DHT22;2286;51.570;7.090;2023-02-23T08:09:05;8.50;1.00
4548;DHT22;2286;51.570;7.090;2023-02-23T08:11:32;8.50;1.00
4548;DHT22;2286;51.570;7.090;2023-02-23T08:13:59;8.50;1.00
4548;DHT22;2286;51.570;7.090;2023-02-23T08:16:26;8.50;1.00
4548;DHT22;2286;51.570;7.090;2023-02-23T08:18:55;8.50;1.00
4548;DHT22;2286;51.570;7.090;2023-02-23T08:21:23;8.50;1.00
4548;DHT22;2286;51.570;7.090;2023-02-23T08:23:49;8.40;99.90
4548;DHT22;2286;51.570;7.090;2023-02-23T08:26:16;8.40;99.90
4548;DHT22;2286;51.570;7.090;2023-02-23T08:28:43;8.40;99.90
4548;DHT22;2286;51.570;7.090;2023-02-23T08:31:11;8.40;1.00
4548;DHT22;2286;51.570;7.090;2023-02-23T08:33:38;8.40;65.60
4548;DHT22;2286;51.570;7.090;2023-02-23T08:36:07;8.50;99.90
4548;DHT22;2286;51.570;7.090;2023-02-23T08:38:34;8.50;99.90
4548;DHT22;2286;51.570;7.090;2023-02-23T08:41:02;8.50;41.70
4548;DHT22;2286;51.570;7.090;2023-02-23T08:43:30;8.50;1.00
4548;DHT22;2286;51.570;7.090;2023-02-23T08:45:57;8.50;1.00
4548;DHT22;2286;51.570;7.090;2023-02-23T08:48:24;8.50;1.00
4548;DHT22;2286;51.570;7.090;2023-02-23T08:50:55;8.40;1.00
4548;DHT22;2286;51.570;7.090;2023-02-23T08:53:23;8.40;1.00
4548;DHT22;2286;51.570;7.090;2023-02-23T08:55:55;8.40;1.00
4548;DHT22;2286;51.570;7.090;2023-02-23T08:58:22;8.50;1.00
4548;DHT22;2286;51.570;7.090;2023-02-23T09:00:49;8.50;25.20
4548;DHT22;2286;51.570;7.090;2023-02-23T09:03:16;8.60;99.90
4548;DHT22;2286;51.570;7.090;2023-02-23T09:05:43;8.60;99.90
4548;DHT22;2286;51.570;7.090;2023-02-23T09:08:11;8.60;26.30
4548;DHT22;2286;51.570;7.090;2023-02-23T09:10:39;8.60;1.00
4548;DHT22;2286;51.570;7.090;2023-02-23T09:13:08;8.60;1.00
4548;DHT22;2286;51.570;7.090;2023-02-23T09:15:35;8.60;1.00
4548;DHT22;2286;51.570;7.090;2023-02-23T09:18:03;8.70;1.00
4548;DHT22;2286;51.570;7.090;2023-02-23T09:20:30;8.70;1.00
4548;DHT22;2286;51.570;7.090;2023-02-23T09:22:56;8.70;99.90
4548;DHT22;2286;51.570;7.090;2023-02-23T09:25:24;8.70;99.90
4548;DHT22;2286;51.570;7.090;2023-02-23T09:27:54;8.60;99.90
4548;DHT22;2286;51.570;7.090;2023-02-23T09:30:22;8.60;99.90
4548;DHT22;2286;51.570;7.090;2023-02-23T09:32:50;8.70;99.90
4548;DHT22;2286;51.570;7.090;2023-02-23T09:35:19;8.70;99.90
4548;DHT22;2286;51.570;7.090;2023-02-23T09:37:46;8.80;99.90
4548;DHT22;2286;51.570;7.090;2023-02-23T09:40:15;8.80;99.90
4548;DHT22;2286;51.570;7.090;2023-02-23T09:42:48;8.90;99.90
4548;DHT22;2286;51.570;7.090;2023-02-23T09:45:25;9.00;1.00
4548;DHT22;2286;51.570;7.090;2023-02-23T09:48:05;9.10;99.90
4548;DHT22;2286;51.570;7.090;2023-02-23T09:50:35;9.10;99.90
4548;DHT22;2286;51.570;7.090;2023-02-23T09:53:06;9.30;99.90
4548;DHT22;2286;51.570;7.090;2023-02-23T09:55:37;9.30;99.90
4548;DHT22;2286;51.570;7.090;2023-02-23T09:58:07;9.30;99.90
4548;DHT22;2286;51.570;7.090;2023-02-23T10:00:43;9.30;44.30
4548;DHT22;2286;51.570;7.090;2023-02-23T10:03:22;9.30;1.00
4548;DHT22;2286;51.570;7.090;2023-02-23T10:05:55;9.30;2.20
4548;DHT22;2286;51.570;7.090;2023-02-23T10:08:36;9.30;27.30
4548;DHT22;2286;51.570;7.090;2023-02-23T10:11:10;9.30;21.90
4548;DHT22;2286;51.570;7.090;2023-02-23T10:13:46;9.30;1.00
4548;DHT22;2286;51.570;7.090;2023-02-23T10:16:23;9.20;99.90
4548;DHT22;2286;51.570;7.090;2023-02-23T10:18:59;9.20;99.90
4548;DHT22;2286;51.570;7.090;2023-02-23T10:21:33;9.30;99.90
4548;DHT22;2286;51.570;7.090;2023-02-23T10:24:05;9.30;1.00
4548;DHT22;2286;51.570;7.090;2023-02-23T10:26:38;9.40;1.00
4548;DHT22;2286;51.570;7.090;2023-02-23T10:29:18;9.20;99.90
4548;DHT22;2286;51.570;7.090;2023-02-23T10:31:50;9.20;99.90
4548;DHT22;2286;51.570;7.090;2023-02-23T10:34:17;9.20;99.90
4548;DHT22;2286;51.570;7.090;2023-02-23T10:36:49;9.10;99.90
4548;DHT22;2286;51.570;7.090;2023-02-23T10:39:18;9.10;99.90
4548;DHT22;2286;51.570;7.090;2023-02-23T10:41:45;9.10;99.90
4548;DHT22;2286;51.570;7.090;2023-02-23T10:44:17;9.00;99.90
4548;DHT22;2286;51.570;7.090;2023-02-23T10:46:50;9.00;99.90
4548;DHT22;2286;51.570;7.090;2023-02-23T10:49:20;8.90;99.90
4548;DHT22;2286;51.570;7.090;2023-02-23T10:51:48;8.80;1.00
4548;DHT22;2286;51.570;7.090;2023-02-23T10:54:37;8.90;1.00
4548;DHT22;2286;51.570;7.090;2023-02-23T10:57:09;8.80;1.00
4548;DHT22;2286;51.570;7.090;2023-02-23T10:59:40;8.80;1.00
4548;DHT22;2286;51.570;7.090;2023-02-23T11:02:21;8.80;1.00
4548;DHT22;2286;51.570;7.090;2023-02-23T11:04:53;8.80;1.00
4548;DHT22;2286;51.570;7.090;2023-02-23T11:07:23;8.90;1.00
4548;DHT22;2286;51.570;7.090;2023-02-23T11:09:54;8.80;1.00
4548;DHT22;2286;51.570;7.090;2023-02-23T11:12:23;8.80;1.00
4548;DHT22;2286;51.570;7.090;2023-02-23T11:14:53;8.90;1.00
4548;DHT22;2286;51.570;7.090;2023-02-23T11:17:27;8.90;1.00
4548;DHT22;2286;51.570;7.090;2023-02-23T11:20:03;9.00;1.00
4548;DHT22;2286;51.570;7.090;2023-02-23T11:22:32;9.00;1.00
4548;DHT22;2286;51.570;7.090;2023-02-23T11:25:02;9.10;1.00
4548;DHT22;2286;51.570;7.090;2023-02-23T11:27:31;9.00;1.00
4548;DHT22;2286;51.570;7.090;2023-02-23T11:30:03;9.00;1.00
4548;DHT22;2286;51.570;7.090;2023-02-23T11:32:33;8.80;99.90
4548;DHT22;2286;51.570;7.090;2023-02-23T11:35:13;8.80;99.90
4548;DHT22;2286;51.570;7.090;2023-02-23T11:37:47;8.70;1.00
4548;DHT22;2286;51.570;7.090;2023-02-23T11:40:20;8.70;1.00
4548;DHT22;2286;51.570;7.090;2023-02-23T11:42:52;8.60;1.00
4548;DHT22;2286;51.570;7.090;2023-02-23T11:45:20;8.50;1.00
4548;DHT22;2286;51.570;7.090;2023-02-23T11:47:51;8.60;1.00
4548;DHT22;2286;51.570;7.090;2023-02-23T11:50:27;8.60;1.00
4548;DHT22;2286;51.570;7.090;2023-02-23T11:53:02;8.70;1.00
4548;DHT22;2286;51.570;7.090;2023-02-23T11:55:31;8.70;1.00
4548;DHT22;2286;51.570;7.090;2023-02-23T11:58:09;8.80;1.00
4548;DHT22;2286;51.570;7.090;2023-02-23T12:00:38;8.80;1.00
4548;DHT22;2286;51.570;7.090;2023-02-23T12:03:06;8.90;1.00
4548;DHT22;2286;51.570;7.090;2023-02-23T12:05:39;9.00;1.00
4548;DHT22;2286;51.570;7.090;2023-02-23T12:08:08;9.20;1.00
4548;DHT22;2286;51.570;7.090;2023-02-23T12:10:41;9.30;1.00
4548;DHT22;2286;51.570;7.090;2023-02-23T12:13:23;9.30;1.00
4548;DHT22;2286;51.570;7.090;2023-02-23T12:15:54;9.30;1.00
4548;DHT22;2286;51.570;7.090;2023-02-23T12:18:38;9.40;1.00
4548;DHT22;2286;51.570;7.090;2023-02-23T12:21:17;9.40;1.00
4548;DHT22;2286;51.570;7.090;2023-02-23T12:23:47;9.40;1.00
4548;DHT22;2286;51.570;7.090;2023-02-23T12:26:16;9.40;99.90
4548;DHT22;2286;51.570;7.090;2023-02-23T12:28:48;9.30;99.90
4548;DHT22;2286;51.570;7.090;2023-02-23T12:31:22;9.30;99.90
4548;DHT22;2286;51.570;7.090;2023-02-23T12:33:56;9.30;99.90
4548;DHT22;2286;51.570;7.090;2023-02-23T12:36:29;9.30;1.00
4548;DHT22;2286;51.570;7.090;2023-02-23T12:39:02;9.30;1.00
4548;DHT22;2286;51.570;7.090;2023-02-23T12:41:35;9.20;1.00
4548;DHT22;2286;51.570;7.090;2023-02-23T12:44:10;9.20;1.00
4548;DHT22;2286;51.570;7.090;2023-02-23T12:46:44;9.10;99.90
4548;DHT22;2286;51.570;7.090;2023-02-23T12:49:19;9.20;99.90
4548;DHT22;2286;51.570;7.090;2023-02-23T12:51:52;9.20;1.00
4548;DHT22;2286;51.570;7.090;2023-02-23T12:54:21;9.20;99.90
4548;DHT22;2286;51.570;7.090;2023-02-23T12:56:59;9.10;1.00
4548;DHT22;2286;51.570;7.090;2023-02-23T12:59:49;9.10;1.00
4548;DHT22;2286;51.570;7.090;2023-02-23T13:02:22;9.10;1.00
4548;DHT22;2286;51.570;7.090;2023-02-23T13:05:16;9.00;1.00
4548;DHT22;2286;51.570;7.090;2023-02-23T13:07:51;8.90;1.00
4548;DHT22;2286;51.570;7.090;2023-02-23T13:10:31;9.00;1.00
4548;DHT22;2286;51.570;7.090;2023-02-23T13:13:06;8.90;99.90
4548;DHT22;2286;51.570;7.090;2023-02-23T13:15:48;8.80;99.90
4548;DHT22;2286;51.570;7.090;2023-02-23T13:18:23;8.80;99.90
4548;DHT22;2286;51.570;7.090;2023-02-23T13:20:57;8.80;1.00
4548;DHT22;2286;51.570;7.090;2023-02-23T13:23:32;8.80;1.00
4548;DHT22;2286;51.570;7.090;2023-02-23T13:26:08;8.80;99.90
4548;DHT22;2286;51.570;7.090;2023-02-23T13:28:45;8.70;99.90
4548;DHT22;2286;51.570;7.090;2023-02-23T13:31:21;8.70;99.90
4548;DHT22;2286;51.570;7.090;2023-02-23T13:33:48;8.70;1.00
4548;DHT22;2286;51.570;7.090;2023-02-23T13:36:18;8.60;1.00
4548;DHT22;2286;51.570;7.090;2023-02-23T13:39:12;8.60;99.90
4548;DHT22;2286;51.570;7.090;2023-02-23T13:41:45;8.60;1.00
4548;DHT22;2286;51.570;7.090;2023-02-23T13:44:19;8.50;1.00
4548;DHT22;2286;51.570;7.090;2023-02-23T13:46:51;8.60;1.00
4548;DHT22;2286;51.570;7.090;2023-02-23T13:49:26;8.50;1.00
4548;DHT22;2286;51.570;7.090;2023-02-23T13:52:02;8.40;1.00
4548;DHT22;2286;51.570;7.090;2023-02-23T13:54:34;8.50;1.00
4548;DHT22;2286;51.570;7.090;2023-02-23T13:57:03;8.50;1.00
4548;DHT22;2286;51.570;7.090;2023-02-23T13:59:37;8.50;1.00
4548;DHT22;2286;51.570;7.090;2023-02-23T14:02:31;8.50;1.00
4548;DHT22;2286;51.570;7.090;2023-02-23T14:05:01;8.50;1.00
4548;DHT22;2286;51.570;7.090;2023-02-23T14:07:31;8.50;1.00
4548;DHT22;2286;51.570;7.090;2023-02-23T14:10:02;8.40;99.90
4548;DHT22;2286;51.570;7.090;2023-02-23T14:12:33;8.40;99.90
4548;DHT22;2286;51.570;7.090;2023-02-23T14:15:27;8.50;1.00
4548;DHT22;2286;51.570;7.090;2023-02-23T14:17:56;8.40;99.90
4548;DHT22;2286;51.570;7.090;2023-02-23T14:20:41;8.40;99.90
4548;DHT22;2286;51.570;7.090;2023-02-23T14:29:38;8.60;1.00
4548;DHT22;2286;51.570;7.090;2023-02-23T14:32:27;8.60;1.00
4548;DHT22;2286;51.570;7.090;2023-02-23T14:34:56;8.70;1.00
4548;DHT22;2286;51.570;7.090;2023-02-23T14:37:26;8.80;1.00
4548;DHT22;2286;51.570;7.090;2023-02-23T14:40:10;8.80;99.90
4548;DHT22;2286;51.570;7.090;2023-02-23T14:42:39;8.80;99.90
4548;DHT22;2286;51.570;7.090;2023-02-23T14:45:16;8.80;99.90
4548;DHT22;2286;51.570;7.090;2023-02-23T14:47:46;8.80;99.90
4548;DHT22;2286;51.570;7.090;2023-02-23T14:50:21;8.90;99.90
4548;DHT22;2286;51.570;7.090;2023-02-23T14:52:50;8.80;99.90
4548;DHT22;2286;51.570;7.090;2023-02-23T14:55:22;8.90;99.90
4548;DHT22;2286;51.570;7.090;2023-02-23T14:57:49;8.80;99.90
4548;DHT22;2286;51.570;7.090;2023-02-23T15:00:22;8.70;99.90
4548;DHT22;2286;51.570;7.090;2023-02-23T15:02:55;8.70;99.90
4548;DHT22;2286;51.570;7.090;2023-02-23T15:05:25;8.70;99.90
4548;DHT22;2286;51.570;7.090;2023-02-23T15:07:52;8.60;99.90
4548;DHT22;2286;51.570;7.090;2023-02-23T15:10:28;8.60;99.90
4548;DHT22;2286;51.570;7.090;2023-02-23T15:12:56;8.60;99.90
4548;DHT22;2286;51.570;7.090;2023-02-23T15:15:24;8.60;99.90
4548;DHT22;2286;51.570;7.090;2023-02-23T15:17:54;8.60;99.90
4548;DHT22;2286;51.570;7.090;2023-02-23T15:20:27;8.60;99.90
4548;DHT22;2286;51.570;7.090;2023-02-23T15:22:58;8.60;99.90
4548;DHT22;2286;51.570;7.090;2023-02-23T15:25:34;8.60;99.90
4548;DHT22;2286;51.570;7.090;2023-02-23T15:28:14;8.60;99.90
4548;DHT22;2286;51.570;7.090;2023-02-23T15:30:46;8.50;99.90
4548;DHT22;2286;51.570;7.090;2023-02-23T15:33:15;8.50;1.00
4548;DHT22;2286;51.570;7.090;2023-02-23T15:35:47;8.50;1.00
4548;DHT22;2286;51.570;7.090;2023-02-23T15:38:20;8.50;1.00
4548;DHT22;2286;51.570;7.090;2023-02-23T15:40:51;8.40;1.00
4548;DHT22;2286;51.570;7.090;2023-02-23T15:43:19;8.40;1.00
4548;DHT22;2286;51.570;7.090;2023-02-23T15:45:49;8.40;1.00
4548;DHT22;2286;51.570;7.090;2023-02-23T15:48:20;8.40;99.90
4548;DHT22;2286;51.570;7.090;2023-02-23T15:50:49;8.40;99.90
4548;DHT22;2286;51.570;7.090;2023-02-23T15:53:27;8.40;99.90
4548;DHT22;2286;51.570;7.090;2023-02-23T15:56:02;8.40;99.90
4548;DHT22;2286;51.570;7.090;2023-02-23T15:58:31;8.40;99.90
4548;DHT22;2286;51.570;7.090;2023-02-23T16:01:08;8.40;99.90
4548;DHT22;2286;51.570;7.090;2023-02-23T16:03:38;8.30;99.90
4548;DHT22;2286;51.570;7.090;2023-02-23T16:06:21;8.40;99.90
4548;DHT22;2286;51.570;7.090;2023-02-23T16:08:54;8.30;99.90
4548;DHT22;2286;51.570;7.090;2023-02-23T16:11:23;8.30;99.90
4548;DHT22;2286;51.570;7.090;2023-02-23T16:13:52;8.30;99.90
4548;DHT22;2286;51.570;7.090;2023-02-23T16:16:19;8.20;99.90
4548;DHT22;2286;51.570;7.090;2023-02-23T16:18:51;8.20;1.00
4548;DHT22;2286;51.570;7.090;2023-02-23T16:21:21;8.10;1.00
4548;DHT22;2286;51.570;7.090;2023-02-23T16:23:50;8.10;1.00
4548;DHT22;2286;51.570;7.090;2023-02-23T16:26:19;8.10;1.00
4548;DHT22;2286;51.570;7.090;2023-02-23T16:28:53;8.10;1.00
4548;DHT22;2286;51.570;7.090;2023-02-23T16:31:23;8.10;1.00
4548;DHT22;2286;51.570;7.090;2023-02-23T16:33:55;8.10;1.00
4548;DHT22;2286;51.570;7.090;2023-02-23T16:36:33;8.10;1.00
4548;DHT22;2286;51.570;7.090;2023-02-23T16:39:08;8.00;1.00
4548;DHT22;2286;51.570;7.090;2023-02-23T16:41:36;8.00;1.00
4548;DHT22;2286;51.570;7.090;2023-02-23T16:44:05;8.00;1.00
4548;DHT22;2286;51.570;7.090;2023-02-23T16:46:57;8.00;1.00
4548;DHT22;2286;51.570;7.090;2023-02-23T16:49:35;8.10;1.00
4548;DHT22;2286;51.570;7.090;2023-02-23T16:52:11;8.10;1.00
4548;DHT22;2286;51.570;7.090;2023-02-23T16:54:39;8.00;1.00
4548;DHT22;2286;51.570;7.090;2023-02-23T16:57:17;8.00;1.00
4548;DHT22;2286;51.570;7.090;2023-02-23T16:59:47;8.00;1.00
4548;DHT22;2286;51.570;7.090;2023-02-23T17:02:16;8.00;1.00
4548;DHT22;2286;51.570;7.090;2023-02-23T17:04:44;8.00;40.20
4548;DHT22;2286;51.570;7.090;2023-02-23T17:07:13;8.00;56.40
4548;DHT22;2286;51.570;7.090;2023-02-23T17:09:40;8.00;64.20
4548;DHT22;2286;51.570;7.090;2023-02-23T17:12:09;7.90;79.70
4548;DHT22;2286;51.570;7.090;2023-02-23T17:14:36;8.00;76.30